Willow Hill, Pennsylvania
Current Conditions -  °F | °C
As of 4:53 AM on Tuesday 21 Oct 2014 (Local Time) from KHGR Reporting Station
Broken Clouds Broken Clouds  
Wind Chill: 51°   Ceiling: 8500
Heat Index: 51°   Visibility: 10mi
Dew Point: 47°   Wind: 3mph
Humidity: 86%   Direction: 160°SSE
Pressure: 29.85"   Gusts: NA
Location:  40.11°N, 77.79°W
Report Text: KHGR 210853Z AUTO 16003KT 10SM BKN085 11/08 A2985 RMK AO2 SLP117 T01060083 57010
Loading
Personal Weather Stations






























Interactive Weather Map
Tropical Storm Tracking
New forecast layout! Learn more

10-Day Weather Forecast

Advertisements
Track Severe Weather on mobile